Agios Andreas — SY3521 — position and weather

sailwx.info

Track history (hours):
 
Tides and Currents Weather Stations Pressure Air Temp Water Temp Dewpoint Dewpoint Depression Visibility Wind Speed Wind Dir Waves Ship Positions

Agios Andreas

Last reported at 2017-Sep-21 03:34 UTC. Time now 2017-Oct-19 02:04 UTC.
Position N 40°41' E 025°01'.
Warning: this ship's position is 27 days out of date.

Length 31 m; draft 3.4 m.

Type: Fishing. MMSI: 240021000.

Date/timePositionNaut miles runAvg speedWind from/ knotsBaromVisibWave heightAir tempDewpointWater temp
2017-Sep-21 03:34N 40°41' E 025°01'1 7.3
2017-Sep-21 03:24N 40°42' E 024°59'4 8.7
2017-Sep-21 02:59N 40°44' E 024°56'4 9.0
2017-Sep-21 02:30N 40°46' E 024°51'5 9.6
2017-Sep-21 02:00N 40°49' E 024°46'4 8.8
2017-Sep-21 01:31N 40°51' E 024°41'1 1.6
2017-Sep-21 00:59N 40°51' E 024°42'0 0.0
2017-Sep-21 00:29N 40°51' E 024°42'0 0.0
2017-Sep-20 23:59N 40°51' E 024°42'0 0.0
2017-Sep-20 23:02N 40°51' E 024°42'0 0.1
2017-Sep-20 22:59N 40°51' E 024°42'0 0.0
2017-Sep-20 22:29N 40°51' E 024°42'0 0.0
2017-Sep-20 21:59N 40°51' E 024°42'0 0.0
2017-Sep-20 21:29N 40°51' E 024°42'0 0.0
2017-Sep-20 20:59N 40°51' E 024°42'0 0.0
2017-Sep-20 20:29N 40°51' E 024°42'0 0.0
2017-Sep-20 19:59N 40°51' E 024°42'0 0.0
2017-Sep-20 19:29N 40°51' E 024°42'0 0.0
2017-Sep-20 18:59N 40°51' E 024°42'0 0.0
2017-Sep-20 18:29N 40°51' E 024°42'0 0.0
2017-Sep-20 17:59N 40°51' E 024°42'0 0.0
2017-Sep-20 17:29N 40°51' E 024°42'1 1.9
2017-Sep-20 17:00N 40°51' E 024°41'4 8.2
2017-Sep-20 16:31N 40°50' E 024°46'4 8.7
2017-Sep-20 16:01N 40°49' E 024°51'4 8.9
2017-Sep-20 15:30N 40°47' E 024°57'19 1.8
2017-Sep-20 04:43N 40°38' E 025°19'1 3.1
2017-Sep-20 04:30N 40°38' E 025°20'2 3.1
2017-Sep-20 04:00N 40°38' E 025°21'4 5.3
2017-Sep-20 03:10N 40°39' E 025°27'1 1.4
2017-Sep-20 02:48N 40°39' E 025°28'1 2.8
2017-Sep-20 02:27N 40°40' E 025°27'10 3.0
2017-Sep-19 23:05N 40°43' E 025°14'1 3.2
2017-Sep-19 22:47N 40°43' E 025°13'1 3.2
2017-Sep-19 22:22N 40°43' E 025°11'4 3.1
2017-Sep-19 21:09N 40°43' E 025°06'1 3.1
2017-Sep-19 20:58N 40°43' E 025°05'1 3.1
2017-Sep-19 20:31N 40°42' E 025°03'2 3.1
2017-Sep-19 20:01N 40°41' E 025°02'2 3.2
2017-Sep-19 19:30N 40°40' E 025°01'2 3.6
2017-Sep-19 19:00N 40°38' E 025°00'1 1.9
2017-Sep-19 18:30N 40°38' E 025°02'2 3.2
2017-Sep-19 18:00N 40°38' E 025°04'2 3.2
2017-Sep-19 17:30N 40°37' E 025°06'2 3.2
2017-Sep-19 17:00N 40°37' E 025°08'11 3.1
2017-Sep-19 13:31N 40°39' E 025°22'0 4.5
2017-Sep-19 13:31N 40°39' E 025°22'1 1.4
2017-Sep-19 12:58N 40°39' E 025°21'1 3.1
2017-Sep-19 12:30N 40°39' E 025°19'4 0.2
2017-Sep-18 14:09N 40°37' E 025°14'0 3.2
2017-Sep-18 14:01N 40°37' E 025°13'8 3.0
2017-Sep-18 11:15N 40°36' E 025°03'1 3.4
2017-Sep-18 10:51N 40°36' E 025°01'3 7.7
2017-Sep-18 10:30N 40°35' E 024°58'5 9.2
2017-Sep-18 10:00N 40°32' E 024°53'5 9.2
2017-Sep-18 09:28N 40°28' E 024°49'4 9.0
2017-Sep-18 09:00N 40°25' E 024°45'4 9.0
2017-Sep-18 08:30N 40°22' E 024°41'4 8.9
2017-Sep-18 08:00N 40°19' E 024°37'5 9.2
2017-Sep-18 07:30N 40°15' E 024°33'5 9.2
2017-Sep-18 07:00N 40°12' E 024°29'5 9.1
2017-Sep-18 06:30N 40°08' E 024°26'4 8.6
2017-Sep-18 05:59N 40°05' E 024°22'4 9.0
2017-Sep-18 05:30N 40°02' E 024°17'7 8.8
2017-Sep-18 04:45N 39°59' E 024°09'2 8.5
2017-Sep-18 04:28N 39°58' E 024°06'4 8.7
2017-Sep-18 04:00N 39°57' E 024°01'  
Track history (hours):
 
Tides and Currents Weather Stations Pressure Air Temp Water Temp Dewpoint Dewpoint Depression Visibility Wind Speed Wind Dir Waves Ship Positions

Agios Andreas

Last reported at 2017-Sep-21 03:34 UTC. Time now 2017-Oct-19 02:04 UTC.
Position N 40°41' E 025°01'.
Warning: this ship's position is 27 days out of date.

Length 31 m; draft 3.4 m.

Type: Fishing. MMSI: 240021000.

Date/timePositionNaut miles runAvg speedWind from/ knotsBaromVisibWave heightAir tempDewpointWater temp
2017-Sep-21 03:34N 40°41' E 025°01'1 7.3
2017-Sep-21 03:24N 40°42' E 024°59'4 8.7
2017-Sep-21 02:59N 40°44' E 024°56'4 9.0
2017-Sep-21 02:30N 40°46' E 024°51'5 9.6
2017-Sep-21 02:00N 40°49' E 024°46'4 8.8
2017-Sep-21 01:31N 40°51' E 024°41'1 1.6
2017-Sep-21 00:59N 40°51' E 024°42'0 0.0
2017-Sep-21 00:29N 40°51' E 024°42'0 0.0
2017-Sep-20 23:59N 40°51' E 024°42'0 0.0
2017-Sep-20 23:02N 40°51' E 024°42'0 0.1
2017-Sep-20 22:59N 40°51' E 024°42'0 0.0
2017-Sep-20 22:29N 40°51' E 024°42'0 0.0
2017-Sep-20 21:59N 40°51' E 024°42'0 0.0
2017-Sep-20 21:29N 40°51' E 024°42'0 0.0
2017-Sep-20 20:59N 40°51' E 024°42'0 0.0
2017-Sep-20 20:29N 40°51' E 024°42'0 0.0
2017-Sep-20 19:59N 40°51' E 024°42'0 0.0
2017-Sep-20 19:29N 40°51' E 024°42'0 0.0
2017-Sep-20 18:59N 40°51' E 024°42'0 0.0
2017-Sep-20 18:29N 40°51' E 024°42'0 0.0
2017-Sep-20 17:59N 40°51' E 024°42'0 0.0
2017-Sep-20 17:29N 40°51' E 024°42'1 1.9
2017-Sep-20 17:00N 40°51' E 024°41'4 8.2
2017-Sep-20 16:31N 40°50' E 024°46'4 8.7
2017-Sep-20 16:01N 40°49' E 024°51'4 8.9
2017-Sep-20 15:30N 40°47' E 024°57'19 1.8
2017-Sep-20 04:43N 40°38' E 025°19'1 3.1
2017-Sep-20 04:30N 40°38' E 025°20'2 3.1
2017-Sep-20 04:00N 40°38' E 025°21'4 5.3
2017-Sep-20 03:10N 40°39' E 025°27'1 1.4
2017-Sep-20 02:48N 40°39' E 025°28'1 2.8
2017-Sep-20 02:27N 40°40' E 025°27'10 3.0
2017-Sep-19 23:05N 40°43' E 025°14'1 3.2
2017-Sep-19 22:47N 40°43' E 025°13'1 3.2
2017-Sep-19 22:22N 40°43' E 025°11'4 3.1
2017-Sep-19 21:09N 40°43' E 025°06'1 3.1
2017-Sep-19 20:58N 40°43' E 025°05'1 3.1
2017-Sep-19 20:31N 40°42' E 025°03'2 3.1
2017-Sep-19 20:01N 40°41' E 025°02'2 3.2
2017-Sep-19 19:30N 40°40' E 025°01'2 3.6
2017-Sep-19 19:00N 40°38' E 025°00'1 1.9
2017-Sep-19 18:30N 40°38' E 025°02'2 3.2
2017-Sep-19 18:00N 40°38' E 025°04'2 3.2
2017-Sep-19 17:30N 40°37' E 025°06'2 3.2
2017-Sep-19 17:00N 40°37' E 025°08'11 3.1
2017-Sep-19 13:31N 40°39' E 025°22'0 4.5
2017-Sep-19 13:31N 40°39' E 025°22'1 1.4
2017-Sep-19 12:58N 40°39' E 025°21'1 3.1
2017-Sep-19 12:30N 40°39' E 025°19'4 0.2
2017-Sep-18 14:09N 40°37' E 025°14'0 3.2
2017-Sep-18 14:01N 40°37' E 025°13'8 3.0
2017-Sep-18 11:15N 40°36' E 025°03'1 3.4
2017-Sep-18 10:51N 40°36' E 025°01'3 7.7
2017-Sep-18 10:30N 40°35' E 024°58'5 9.2
2017-Sep-18 10:00N 40°32' E 024°53'5 9.2
2017-Sep-18 09:28N 40°28' E 024°49'4 9.0
2017-Sep-18 09:00N 40°25' E 024°45'4 9.0
2017-Sep-18 08:30N 40°22' E 024°41'4 8.9
2017-Sep-18 08:00N 40°19' E 024°37'5 9.2
2017-Sep-18 07:30N 40°15' E 024°33'5 9.2
2017-Sep-18 07:00N 40°12' E 024°29'5 9.1
2017-Sep-18 06:30N 40°08' E 024°26'4 8.6
2017-Sep-18 05:59N 40°05' E 024°22'4 9.0
2017-Sep-18 05:30N 40°02' E 024°17'7 8.8
2017-Sep-18 04:45N 39°59' E 024°09'2 8.5
2017-Sep-18 04:28N 39°58' E 024°06'4 8.7
2017-Sep-18 04:00N 39°57' E 024°01'  

Dump ship's entire track history